PASV/SVW METAR and TAF weather

Enter ICAO airport designator
Station Type Date Time Source
PASV METAR 2021/04/17 00:55 UTC NOAA

PASV 170055Z AUTO 04006KT 10SM CLR 04/M02 A3049 RMK AO2 SLP345 T00391025


Station Type Date Time Source
PASV Decoded METAR 2021/04/17 00:55 UTC NOAA

Sparrevohn Airways Facilities Sector, AK, United States (PASV) 61-06N 155-34W
Apr 16, 2021 - 08:55 PM EDT / 2021.04.17 0055 UTC
Wind: from the NE (040 degrees) at 7 MPH (6 KT):0
Visibility: 10 mile(s):0
Sky conditions: clear
Temperature: 39.0 F (3.9 C)
Dew Point: 27.5 F (-2.5 C)
Relative Humidity: 62%
Pressure (altimeter): 30.49 in. Hg (1032 hPa)
ob: PASV 170055Z AUTO 04006KT 10SM CLR 04/M02 A3049 RMK AO2 SLP345 T00391025
cycle: 1

Station Type Date Time Source
PASV TAF 2012/01/12 14:57 UTC NOAA

TAF
AMD PASV 1214/1320 33010G15KT 4800 -SN BLSN SCT003 SCT110 QNH2984INS
BECMG 1221/1222 VRB06KT 9999 NSW FEW010 SCT110 QNH3000INS LIMITED METWATCH TM25/1300Z TM37/1315Z
AMD 121453

Example: see airport list